createdAt,value
2018-06-15T00:00:16.976Z,11.83
2018-06-15T00:02:51.294Z,11.63
2018-06-15T00:05:20.057Z,9.53
2018-06-15T00:07:48.921Z,10.30
2018-06-15T00:10:17.680Z,9.43
2018-06-15T00:12:46.353Z,9.73
2018-06-15T00:15:15.110Z,8.57
2018-06-15T00:17:43.882Z,9.80
2018-06-15T00:20:12.456Z,8.17
2018-06-15T00:22:40.964Z,9.90
2018-06-15T00:25:09.637Z,9.90
2018-06-15T00:27:38.232Z,10.57
2018-06-15T00:30:07.166Z,9.30
2018-06-15T00:32:35.934Z,10.57
2018-06-15T00:38:01.906Z,9.37
2018-06-15T00:40:30.669Z,9.07
2018-06-15T00:42:59.450Z,9.33
2018-06-15T00:45:28.205Z,10.17
2018-06-15T00:47:56.978Z,10.40
2018-06-15T00:50:25.741Z,8.93
2018-06-15T00:52:54.521Z,9.20
2018-06-15T00:55:23.446Z,8.30
2018-06-15T00:57:52.225Z,9.07
2018-06-15T01:00:20.998Z,8.40
2018-06-15T01:02:49.782Z,9.27
2018-06-15T01:05:18.574Z,9.17
2018-06-15T01:07:47.362Z,8.37
2018-06-15T01:10:16.133Z,9.23
2018-06-15T01:12:44.914Z,8.73
2018-06-15T01:15:13.702Z,9.47
2018-06-15T01:17:42.565Z,9.10
2018-06-15T01:20:11.333Z,10.50
2018-06-15T01:22:40.904Z,10.00
2018-06-15T01:25:09.605Z,9.63
2018-06-15T01:27:38.636Z,9.33
2018-06-15T01:30:07.376Z,8.33
2018-06-15T01:32:36.045Z,8.73
2018-06-15T01:35:04.812Z,8.97
2018-06-15T01:37:33.689Z,8.73
2018-06-15T01:40:02.461Z,8.77
2018-06-15T01:42:31.225Z,7.57
2018-06-15T01:45:00.150Z,9.90
2018-06-15T01:47:28.928Z,8.87
2018-06-15T01:49:57.410Z,9.00
2018-06-15T01:52:25.892Z,9.10
2018-06-15T01:54:54.590Z,8.43
2018-06-15T01:57:23.353Z,8.03
2018-06-15T01:59:52.277Z,9.13
2018-06-15T02:02:21.033Z,10.13
2018-06-15T02:04:49.811Z,8.30
2018-06-15T02:07:18.569Z,8.43
2018-06-15T02:09:47.555Z,8.63
2018-06-15T02:12:16.303Z,9.10
2018-06-15T02:14:45.169Z,8.10
2018-06-15T02:17:13.829Z,8.27
2018-06-15T02:19:42.689Z,7.70
2018-06-15T02:22:11.633Z,7.83
2018-06-15T02:24:40.441Z,8.23
2018-06-15T02:27:09.226Z,8.53
2018-06-15T02:29:38.006Z,9.00
2018-06-15T02:32:06.775Z,8.37
2018-06-15T02:34:35.702Z,8.30
2018-06-15T02:37:04.466Z,8.60
2018-06-15T02:39:33.242Z,8.83
2018-06-15T02:42:02.050Z,8.90
2018-06-15T02:44:30.817Z,7.43
2018-06-15T02:46:59.597Z,6.87
2018-06-15T02:49:28.398Z,8.00
2018-06-15T02:51:57.192Z,7.10
2018-06-15T02:54:25.965Z,6.77
2018-06-15T02:56:54.746Z,7.57
2018-06-15T02:59:23.517Z,8.20
2018-06-15T03:01:52.274Z,7.57
2018-06-15T03:04:21.037Z,7.50
2018-06-15T03:06:49.801Z,6.97
2018-06-15T03:09:18.566Z,7.43
2018-06-15T03:11:47.337Z,7.43
2018-06-15T03:14:15.889Z,7.17
2018-06-15T03:16:44.568Z,7.47
2018-06-15T03:19:13.353Z,8.37
2018-06-15T03:21:42.113Z,7.00
2018-06-15T03:24:10.875Z,8.27
2018-06-15T03:26:39.648Z,8.37
2018-06-15T03:29:08.445Z,7.13
2018-06-15T03:31:36.989Z,7.10
2018-06-15T03:34:05.705Z,8.27
2018-06-15T03:36:34.465Z,7.17
2018-06-15T03:39:05.899Z,7.47
2018-06-15T03:41:34.637Z,8.23
2018-06-15T03:44:03.289Z,7.60
2018-06-15T03:46:32.059Z,7.00
2018-06-15T03:49:01.114Z,7.33
2018-06-15T03:51:29.887Z,8.47
2018-06-15T03:53:58.679Z,7.60
2018-06-15T03:56:27.434Z,8.23
2018-06-15T03:58:56.273Z,7.03
2018-06-15T04:01:25.031Z,7.83
2018-06-15T04:03:54.337Z,7.50
2018-06-15T04:06:23.106Z,7.17
2018-06-15T04:08:51.865Z,7.13
2018-06-15T04:11:20.625Z,7.73
2018-06-15T04:13:49.389Z,7.40
2018-06-15T04:16:18.150Z,7.13
2018-06-15T04:18:46.930Z,7.60
2018-06-15T04:21:15.705Z,6.83
2018-06-15T04:23:44.461Z,8.20
2018-06-15T04:26:13.240Z,7.37
2018-06-15T04:28:41.798Z,8.97
2018-06-15T04:31:10.498Z,7.33
2018-06-15T04:33:39.277Z,7.33
2018-06-15T04:36:08.173Z,7.27
2018-06-15T04:38:36.990Z,7.07
2018-06-15T04:41:06.130Z,8.87
2018-06-15T04:43:35.053Z,7.83
2018-06-15T04:46:03.821Z,7.23
2018-06-15T04:48:32.678Z,7.23
2018-06-15T04:51:01.453Z,6.93
2018-06-15T04:53:30.214Z,6.90
2018-06-15T04:55:59.015Z,7.53
2018-06-15T04:58:27.853Z,6.87
2018-06-15T05:00:56.781Z,6.97
2018-06-15T05:03:25.618Z,6.70
2018-06-15T05:05:54.406Z,6.87
2018-06-15T05:08:23.332Z,6.60
2018-06-15T05:10:52.097Z,6.10
2018-06-15T05:13:20.856Z,6.73
2018-06-15T05:15:49.630Z,5.90
2018-06-15T05:18:18.465Z,5.23
2018-06-15T05:20:47.213Z,6.50
2018-06-15T05:23:16.126Z,5.27
2018-06-15T05:25:44.745Z,5.93
2018-06-15T05:28:13.357Z,5.37
2018-06-15T05:30:42.092Z,5.77
2018-06-15T05:33:10.738Z,5.80
2018-06-15T05:35:39.637Z,5.57
2018-06-15T05:38:08.396Z,5.93
2018-06-15T05:40:37.163Z,6.27
2018-06-15T05:43:05.949Z,4.63
2018-06-15T05:45:34.722Z,5.03
2018-06-15T05:48:03.481Z,4.10
2018-06-15T05:50:32.310Z,4.40
2018-06-15T05:53:01.054Z,3.60
2018-06-15T05:55:29.826Z,4.60
2018-06-15T05:57:58.424Z,4.30
2018-06-15T06:00:27.093Z,4.23
2018-06-15T06:02:56.037Z,4.07
2018-06-15T06:05:24.822Z,5.00
2018-06-15T06:07:53.573Z,3.53
2018-06-15T06:10:23.023Z,4.53
2018-06-15T06:12:51.847Z,4.03
2018-06-15T06:15:20.804Z,3.87
2018-06-15T06:17:49.527Z,3.33
2018-06-15T06:20:18.325Z,3.93
2018-06-15T06:22:46.908Z,3.53
2018-06-15T06:25:15.597Z,3.53
2018-06-15T06:27:44.154Z,3.60
2018-06-15T06:30:12.835Z,3.57
2018-06-15T06:32:41.692Z,3.80
2018-06-15T06:35:10.505Z,3.40
2018-06-15T06:37:39.478Z,3.33
2018-06-15T06:40:08.254Z,3.33
2018-06-15T06:42:37.034Z,4.33
2018-06-15T06:45:05.910Z,3.50
2018-06-15T06:47:34.685Z,3.40
2018-06-15T06:50:03.228Z,3.57
2018-06-15T06:52:32.070Z,3.90
2018-06-15T06:55:01.454Z,3.10
2018-06-15T06:57:30.246Z,3.13
2018-06-15T06:59:58.848Z,2.83
2018-06-15T07:02:27.745Z,2.73
2018-06-15T07:04:56.506Z,4.70
2018-06-15T07:07:25.289Z,3.57
2018-06-15T07:09:54.057Z,3.20
2018-06-15T07:12:22.846Z,3.73
2018-06-15T07:14:54.593Z,2.93
2018-06-15T07:17:23.573Z,2.93
2018-06-15T07:19:52.407Z,3.10
2018-06-15T07:22:21.422Z,3.00
2018-06-15T07:24:50.331Z,2.90
2018-06-15T07:27:19.052Z,2.60
2018-06-15T07:29:47.762Z,2.77
2018-06-15T07:32:16.586Z,3.00
2018-06-15T07:34:45.377Z,3.07
2018-06-15T07:37:14.162Z,2.80
2018-06-15T07:39:42.922Z,2.40
2018-06-15T07:42:11.695Z,2.27
2018-06-15T07:44:40.454Z,2.07
2018-06-15T07:47:09.245Z,2.20
2018-06-15T07:49:38.082Z,2.10
2018-06-15T07:52:06.907Z,1.80
2018-06-15T07:54:35.653Z,2.20
2018-06-15T07:57:04.562Z,2.30
2018-06-15T07:59:33.088Z,1.67
2018-06-15T08:02:01.774Z,2.40
2018-06-15T08:04:30.635Z,1.97
2018-06-15T08:06:59.497Z,1.90
2018-06-15T08:09:28.263Z,1.90
2018-06-15T08:11:57.022Z,2.07
2018-06-15T08:14:25.783Z,2.60
2018-06-15T08:16:54.577Z,2.07
2018-06-15T08:19:23.333Z,2.23
2018-06-15T08:21:52.489Z,2.07
2018-06-15T08:24:21.341Z,1.70
2018-06-15T08:26:50.122Z,2.03
2018-06-15T08:29:18.652Z,2.23
2018-06-15T08:31:47.341Z,2.17
2018-06-15T08:34:16.114Z,2.10
2018-06-15T08:36:44.881Z,1.60
2018-06-15T08:39:13.656Z,2.20
2018-06-15T08:41:42.308Z,2.77
2018-06-15T08:44:11.072Z,2.30
2018-06-15T08:46:39.830Z,2.27
2018-06-15T08:49:08.609Z,2.67
2018-06-15T08:51:37.381Z,2.20
2018-06-15T08:54:06.173Z,1.67
2018-06-15T08:56:34.756Z,1.87
2018-06-15T08:59:03.453Z,2.37
2018-06-15T09:01:32.030Z,1.93
2018-06-15T09:04:00.709Z,1.80
2018-06-15T09:06:29.486Z,2.50
2018-06-15T09:08:58.261Z,2.00
2018-06-15T09:11:27.038Z,1.93
2018-06-15T09:13:55.805Z,2.13
2018-06-15T09:16:24.561Z,2.10
2018-06-15T09:18:53.152Z,1.63
2018-06-15T09:21:21.829Z,3.00
2018-06-15T09:23:50.383Z,2.10
2018-06-15T09:26:19.058Z,2.07
2018-06-15T09:28:47.829Z,1.67
2018-06-15T09:31:16.582Z,1.37
2018-06-15T09:33:45.362Z,1.73
2018-06-15T09:36:13.936Z,1.63
2018-06-15T09:38:42.433Z,1.57
2018-06-15T09:41:11.105Z,1.67
2018-06-15T09:43:39.886Z,2.10
2018-06-15T09:46:08.650Z,1.83
2018-06-15T09:48:41.577Z,2.10
2018-06-15T09:51:10.473Z,2.03
2018-06-15T09:53:39.321Z,1.97
2018-06-15T09:56:08.077Z,2.17
2018-06-15T09:58:36.886Z,2.13
2018-06-15T10:01:08.378Z,1.90
2018-06-15T10:03:38.101Z,3.10
2018-06-15T10:06:06.635Z,2.10
2018-06-15T10:08:35.881Z,2.07
2018-06-15T10:11:04.816Z,2.00
2018-06-15T10:13:33.493Z,2.10
2018-06-15T10:16:02.491Z,1.50
2018-06-15T10:18:31.246Z,1.83
2018-06-15T10:21:00.000Z,1.80
2018-06-15T10:23:28.773Z,2.47
2018-06-15T10:25:57.540Z,1.93
2018-06-15T10:28:26.309Z,2.80
2018-06-15T10:30:55.173Z,2.50
2018-06-15T10:33:23.775Z,1.63
2018-06-15T10:35:52.585Z,2.00
2018-06-15T10:38:21.327Z,1.53
2018-06-15T10:40:50.268Z,1.60
2018-06-15T10:43:19.029Z,1.73
2018-06-15T10:45:47.926Z,2.90
2018-06-15T10:48:16.693Z,2.37
2018-06-15T10:50:45.249Z,2.10
2018-06-15T10:53:13.927Z,1.93
2018-06-15T10:55:42.705Z,1.90
2018-06-15T10:58:11.446Z,2.13
2018-06-15T11:00:40.213Z,1.87
2018-06-15T11:03:09.006Z,1.90
2018-06-15T11:05:37.768Z,1.77
2018-06-15T11:08:06.539Z,1.57
2018-06-15T11:10:35.325Z,1.80
2018-06-15T11:13:04.145Z,1.77
2018-06-15T11:15:33.176Z,2.10
2018-06-15T11:18:01.918Z,1.87
2018-06-15T11:20:30.733Z,2.07
2018-06-15T11:22:59.255Z,1.63
2018-06-15T11:25:27.951Z,2.10
2018-06-15T11:27:57.098Z,2.00
2018-06-15T11:30:26.045Z,2.03
2018-06-15T11:32:54.773Z,1.80
2018-06-15T11:35:23.552Z,1.60
2018-06-15T11:37:52.321Z,2.13
2018-06-15T11:40:21.362Z,1.93
2018-06-15T11:42:50.181Z,2.37
2018-06-15T11:45:18.879Z,1.90
2018-06-15T11:47:47.680Z,1.83
2018-06-15T11:50:16.469Z,2.50
2018-06-15T11:52:45.216Z,2.00
2018-06-15T11:55:13.981Z,2.47
2018-06-15T11:57:42.549Z,2.03
2018-06-15T12:00:11.290Z,2.00
2018-06-15T12:02:40.166Z,2.47
2018-06-15T12:05:08.930Z,2.10
2018-06-15T12:07:37.532Z,1.97
2018-06-15T12:10:06.402Z,1.90
2018-06-15T12:12:34.945Z,1.97
2018-06-15T12:15:03.634Z,1.60
2018-06-15T12:17:32.405Z,1.70
2018-06-15T12:20:01.257Z,2.00
2018-06-15T12:22:29.840Z,2.87
2018-06-15T12:24:58.529Z,2.03
2018-06-15T12:27:27.104Z,2.30
2018-06-15T12:29:55.749Z,1.87
2018-06-15T12:32:24.431Z,2.23
2018-06-15T12:34:53.257Z,2.07
2018-06-15T12:37:22.018Z,1.80
2018-06-15T12:39:50.961Z,1.80
2018-06-15T12:42:19.741Z,2.30
2018-06-15T12:44:48.312Z,1.67
2018-06-15T12:47:16.801Z,1.60
2018-06-15T12:49:45.481Z,1.30
2018-06-15T12:52:14.246Z,1.97
2018-06-15T12:54:43.003Z,1.87
2018-06-15T12:57:11.766Z,1.90
2018-06-15T12:59:40.547Z,1.70
2018-06-15T13:02:09.433Z,2.73
2018-06-15T13:04:37.995Z,1.80
2018-06-15T13:07:06.449Z,1.73
2018-06-15T13:09:35.117Z,1.87
2018-06-15T13:12:03.900Z,2.10
2018-06-15T13:14:32.635Z,1.97
2018-06-15T13:17:01.394Z,1.97
2018-06-15T13:19:30.127Z,1.97
2018-06-15T13:21:58.881Z,2.17
2018-06-15T13:24:32.210Z,1.70
2018-06-15T13:27:00.795Z,1.73
2018-06-15T13:29:29.277Z,1.97
2018-06-15T13:31:57.801Z,2.53
2018-06-15T13:34:26.539Z,1.83
2018-06-15T13:36:55.458Z,1.97
2018-06-15T13:39:24.219Z,2.10
2018-06-15T13:41:52.997Z,2.07
2018-06-15T13:44:21.801Z,2.30
2018-06-15T13:46:50.557Z,2.23
2018-06-15T13:49:19.225Z,2.37
2018-06-15T13:51:48.006Z,2.13
2018-06-15T13:54:16.753Z,2.10
2018-06-15T13:56:45.364Z,2.13
2018-06-15T13:59:14.043Z,2.20
2018-06-15T14:01:42.803Z,2.40
2018-06-15T14:04:11.567Z,2.00
2018-06-15T14:06:40.329Z,2.07
2018-06-15T14:09:09.841Z,2.00
2018-06-15T14:11:38.929Z,2.37
2018-06-15T14:14:07.714Z,2.20
2018-06-15T14:16:36.469Z,1.87
2018-06-15T14:19:05.238Z,2.13
2018-06-15T14:21:33.981Z,2.20
2018-06-15T14:24:02.730Z,2.23
2018-06-15T14:26:31.498Z,2.07
2018-06-15T14:28:59.988Z,1.63
2018-06-15T14:31:28.943Z,2.53
2018-06-15T14:33:57.906Z,2.20
2018-06-15T14:36:26.857Z,2.37
2018-06-15T14:38:55.730Z,2.07
2018-06-15T14:41:24.639Z,2.00
2018-06-15T14:43:53.513Z,2.00
2018-06-15T14:46:22.261Z,1.93
2018-06-15T14:48:51.015Z,2.20
2018-06-15T14:51:19.778Z,1.97
2018-06-15T14:53:48.562Z,2.23
2018-06-15T14:56:17.453Z,2.17
2018-06-15T14:58:46.240Z,1.70
2018-06-15T15:01:15.005Z,2.37
2018-06-15T15:03:43.737Z,2.03
2018-06-15T15:06:12.525Z,2.30
2018-06-15T15:08:41.267Z,2.10
2018-06-15T15:11:10.104Z,2.10
2018-06-15T15:13:38.869Z,2.20
2018-06-15T15:16:07.741Z,2.30
2018-06-15T15:18:36.496Z,2.40
2018-06-15T15:21:05.253Z,2.83
2018-06-15T15:23:34.054Z,3.17
2018-06-15T15:26:02.814Z,2.37
2018-06-15T15:28:31.584Z,2.60
2018-06-15T15:31:00.365Z,2.53
2018-06-15T15:33:29.144Z,1.87
2018-06-15T15:35:58.006Z,2.53
2018-06-15T15:38:26.567Z,2.77
2018-06-15T15:40:55.237Z,2.20
2018-06-15T15:43:24.010Z,2.27
2018-06-15T15:45:52.771Z,2.37
2018-06-15T15:48:21.634Z,2.33
2018-06-15T15:50:50.385Z,3.00
2018-06-15T15:53:19.156Z,2.33
2018-06-15T15:55:47.909Z,2.00
2018-06-15T15:58:16.457Z,2.40
2018-06-15T16:00:45.117Z,2.40
2018-06-15T16:03:13.880Z,2.53
2018-06-15T16:05:42.641Z,2.43
2018-06-15T16:08:11.410Z,2.50
2018-06-15T16:10:40.253Z,2.50
2018-06-15T16:13:09.013Z,2.30
2018-06-15T16:15:37.553Z,2.57
2018-06-15T16:18:06.253Z,1.70
2018-06-15T16:20:35.090Z,2.13
2018-06-15T16:23:03.830Z,2.50
2018-06-15T16:25:32.601Z,2.30
2018-06-15T16:28:01.356Z,2.03
2018-06-15T16:30:30.106Z,2.47
2018-06-15T16:32:58.868Z,2.10
2018-06-15T16:35:27.665Z,2.30
2018-06-15T16:37:56.445Z,1.97
2018-06-15T16:40:25.202Z,2.20
2018-06-15T16:42:53.961Z,2.30
2018-06-15T16:45:22.733Z,2.17
2018-06-15T16:47:51.486Z,2.27
2018-06-15T16:50:20.241Z,2.43
2018-06-15T16:52:48.997Z,2.10
2018-06-15T16:55:17.757Z,2.70
2018-06-15T16:57:46.619Z,2.63
2018-06-15T17:00:15.402Z,2.27
2018-06-15T17:02:44.153Z,2.43
2018-06-15T17:05:12.925Z,2.77
2018-06-15T17:07:41.680Z,2.43
2018-06-15T17:10:10.417Z,2.27
2018-06-15T17:12:39.202Z,2.00
2018-06-15T17:15:07.993Z,2.30
2018-06-15T17:17:36.814Z,2.10
2018-06-15T17:20:05.586Z,2.43
2018-06-15T17:22:34.364Z,2.70
2018-06-15T17:25:03.139Z,2.43
2018-06-15T17:27:32.163Z,2.10
2018-06-15T17:30:00.942Z,1.97
2018-06-15T17:32:29.906Z,1.90
2018-06-15T17:34:58.698Z,1.70
2018-06-15T17:37:27.663Z,2.47
2018-06-15T17:39:56.209Z,2.73
2018-06-15T17:42:24.858Z,2.33
2018-06-15T17:44:53.625Z,2.40
2018-06-15T17:47:22.406Z,2.17
2018-06-15T17:49:51.161Z,2.20
2018-06-15T17:52:19.736Z,2.20
2018-06-15T17:54:48.413Z,1.97
2018-06-15T17:57:17.182Z,2.40
2018-06-15T17:59:45.972Z,2.33
2018-06-15T18:02:14.713Z,2.73
2018-06-15T18:04:43.469Z,2.30
2018-06-15T18:07:12.238Z,2.37
2018-06-15T18:09:40.996Z,2.60
2018-06-15T18:12:09.748Z,2.10
2018-06-15T18:14:38.502Z,2.47
2018-06-15T18:17:07.113Z,2.20
2018-06-15T18:19:35.648Z,2.10
2018-06-15T18:22:04.325Z,2.17
2018-06-15T18:24:33.313Z,2.57
2018-06-15T18:27:02.065Z,2.23
2018-06-15T18:29:30.656Z,2.53
2018-06-15T18:31:59.305Z,1.90
2018-06-15T18:34:28.185Z,1.73
2018-06-15T18:36:56.973Z,2.10
2018-06-15T18:39:25.725Z,2.20
2018-06-15T18:41:54.530Z,2.43
2018-06-15T18:44:23.270Z,1.77
2018-06-15T18:46:51.812Z,2.03
2018-06-15T18:49:20.510Z,2.17
2018-06-15T18:51:49.257Z,1.90
2018-06-15T18:54:18.015Z,2.43
2018-06-15T18:56:46.953Z,2.63
2018-06-15T18:59:15.714Z,3.40
2018-06-15T19:01:44.249Z,4.70
2018-06-15T19:04:12.936Z,5.10
2018-06-15T19:06:43.285Z,4.40
2018-06-15T19:09:12.405Z,4.53
2018-06-15T19:11:40.967Z,4.47
2018-06-15T19:14:09.460Z,4.20
2018-06-15T19:16:38.272Z,3.93
2018-06-15T19:19:06.915Z,4.20
2018-06-15T19:21:36.221Z,3.60
2018-06-15T19:24:05.632Z,3.23
2018-06-15T19:26:34.509Z,3.20
2018-06-15T19:29:03.247Z,3.07
2018-06-15T19:31:31.957Z,2.67
2018-06-15T19:34:00.754Z,2.97
2018-06-15T19:36:29.520Z,3.40
2018-06-15T19:38:58.319Z,2.53
2018-06-15T19:41:27.153Z,2.60
2018-06-15T19:43:55.732Z,2.57
2018-06-15T19:46:24.225Z,2.23
2018-06-15T19:48:52.912Z,2.77
2018-06-15T19:51:21.529Z,2.80
2018-06-15T19:53:50.157Z,2.97
2018-06-15T19:56:18.933Z,2.40
2018-06-15T19:58:47.701Z,2.93
2018-06-15T20:01:16.445Z,2.80
2018-06-15T20:03:45.220Z,3.42
2018-06-15T20:06:13.986Z,2.63
2018-06-15T20:08:42.901Z,3.10
2018-06-15T20:11:11.689Z,2.70
2018-06-15T20:13:40.601Z,2.57
2018-06-15T20:16:09.369Z,2.87
2018-06-15T20:18:38.189Z,2.10
2018-06-15T20:21:07.043Z,2.63
2018-06-15T20:23:35.966Z,2.70
2018-06-15T20:26:05.133Z,3.10
2018-06-15T20:28:33.887Z,2.30
2018-06-15T20:31:02.751Z,2.30
2018-06-15T20:33:31.614Z,3.33
2018-06-15T20:36:00.381Z,2.40
2018-06-15T20:38:29.170Z,2.70
2018-06-15T20:40:57.940Z,3.00
2018-06-15T20:43:26.836Z,2.47
2018-06-15T20:45:55.709Z,2.57
2018-06-15T20:48:24.740Z,2.67
2018-06-15T20:50:53.529Z,2.50
2018-06-15T20:53:22.299Z,2.30
2018-06-15T20:55:51.302Z,2.20
2018-06-15T20:58:20.059Z,2.73
2018-06-15T21:00:48.885Z,2.63
2018-06-15T21:03:17.681Z,3.40
2018-06-15T21:05:46.485Z,3.33
2018-06-15T21:08:15.069Z,2.77
2018-06-15T21:10:43.729Z,2.80
2018-06-15T21:13:12.501Z,2.50
2018-06-15T21:15:41.265Z,2.63
2018-06-15T21:18:10.053Z,3.00
2018-06-15T21:20:38.825Z,3.33
2018-06-15T21:23:07.601Z,3.47
2018-06-15T21:25:36.379Z,3.67
2018-06-15T21:28:04.956Z,3.70
2018-06-15T21:30:33.412Z,3.60
2018-06-15T21:33:02.070Z,3.57
2018-06-15T21:35:30.838Z,3.80
2018-06-15T21:37:59.747Z,3.10
2018-06-15T21:40:28.506Z,2.97
2018-06-15T21:42:57.268Z,3.07
2018-06-15T21:45:26.026Z,2.90
2018-06-15T21:47:54.778Z,2.93
2018-06-15T21:50:23.559Z,2.70
2018-06-15T21:52:52.301Z,5.67
2018-06-15T21:55:21.089Z,19.70
2018-06-15T21:57:49.925Z,19.23
2018-06-15T22:00:18.686Z,18.80
2018-06-15T22:02:47.458Z,20.27
2018-06-15T22:05:16.262Z,20.07
2018-06-15T22:07:45.042Z,23.77
2018-06-15T22:10:13.855Z,24.23
2018-06-15T22:12:42.475Z,21.13
2018-06-15T22:15:11.165Z,15.00
2018-06-15T22:17:39.943Z,8.77
2018-06-15T22:20:08.695Z,7.00
2018-06-15T22:22:37.490Z,5.87
2018-06-15T22:25:06.074Z,4.10
2018-06-15T22:27:34.762Z,3.00
2018-06-15T22:30:03.309Z,2.50
2018-06-15T22:32:31.977Z,2.60
2018-06-15T22:35:00.724Z,2.37
2018-06-15T22:37:29.497Z,2.60
2018-06-15T22:39:58.257Z,2.40
2018-06-15T22:42:27.014Z,2.50
2018-06-15T22:44:55.753Z,2.37
2018-06-15T22:47:24.510Z,2.30
2018-06-15T22:49:53.267Z,2.33
2018-06-15T22:52:22.031Z,2.60
2018-06-15T22:54:50.620Z,2.27
2018-06-15T22:57:19.310Z,2.80
2018-06-15T22:59:47.864Z,2.07
2018-06-15T23:02:16.538Z,2.57
2018-06-15T23:04:45.309Z,2.33
2018-06-15T23:07:14.086Z,2.13
2018-06-15T23:09:42.893Z,2.20
2018-06-15T23:12:11.669Z,2.20
2018-06-15T23:14:40.479Z,2.20
2018-06-15T23:17:09.186Z,1.70
2018-06-15T23:19:37.938Z,2.47
2018-06-15T23:22:06.733Z,2.00
2018-06-15T23:24:35.493Z,2.70
2018-06-15T23:27:04.506Z,1.90
2018-06-15T23:29:33.249Z,2.00
2018-06-15T23:32:01.804Z,2.63
2018-06-15T23:34:30.481Z,1.93
2018-06-15T23:36:59.269Z,2.50
2018-06-15T23:39:28.035Z,2.20
2018-06-15T23:41:56.825Z,1.70
2018-06-15T23:44:25.577Z,2.53
2018-06-15T23:46:54.111Z,2.27
2018-06-15T23:49:22.817Z,2.40
2018-06-15T23:51:51.599Z,2.07
2018-06-15T23:54:20.356Z,2.17
2018-06-15T23:56:49.101Z,2.53
2018-06-15T23:59:17.660Z,2.03
